createdAt,value
2023-05-23T00:01:18.513Z,95740.72
2023-05-23T00:03:47.374Z,95737.09
2023-05-23T00:06:15.104Z,95739.38
2023-05-23T00:08:42.580Z,95743.00
2023-05-23T00:11:11.472Z,95741.38
2023-05-23T00:13:39.741Z,95737.09
2023-05-23T00:16:09.588Z,95742.47
2023-05-23T00:18:37.261Z,95744.66
2023-05-23T00:21:05.270Z,95745.09
2023-05-23T00:23:33.843Z,95742.44
2023-05-23T00:26:01.360Z,95744.44
2023-05-23T00:28:30.393Z,95748.34
2023-05-23T00:30:57.950Z,95746.16
2023-05-23T00:33:25.822Z,95754.75
2023-05-23T00:35:53.360Z,95757.44
2023-05-23T00:38:20.962Z,95754.81
2023-05-23T00:40:48.571Z,95762.88
2023-05-23T00:43:16.097Z,95759.59
2023-05-23T00:45:45.161Z,95761.81
2023-05-23T00:48:12.909Z,95765.00
2023-05-23T00:50:40.907Z,95764.25
2023-05-23T00:53:08.534Z,95762.09
2023-05-23T00:55:36.166Z,95773.88
2023-05-23T00:58:03.755Z,95769.78
2023-05-23T01:00:31.563Z,95776.25
2023-05-23T01:03:01.253Z,95769.22
2023-05-23T01:05:28.822Z,95763.84
2023-05-23T01:07:56.380Z,95765.63
2023-05-23T01:10:27.483Z,95762.94
2023-05-23T01:13:07.961Z,95770.88
2023-05-23T01:15:41.474Z,95773.34
2023-05-23T01:18:14.661Z,95772.06
2023-05-23T01:20:47.185Z,95774.56
2023-05-23T01:23:40.436Z,95782.81
2023-05-23T01:26:26.202Z,95788.25
2023-05-23T01:28:57.103Z,95784.75
2023-05-23T01:31:28.489Z,95779.63
2023-05-23T01:33:56.941Z,95780.72
2023-05-23T01:36:24.457Z,95789.19
2023-05-23T01:38:51.974Z,95780.13
2023-05-23T01:41:19.462Z,95777.50
2023-05-23T01:43:48.281Z,95779.34
2023-05-23T01:46:17.592Z,95785.50
2023-05-23T01:48:47.012Z,95776.84
2023-05-23T01:51:15.607Z,95781.63
2023-05-23T01:53:44.207Z,95777.50
2023-05-23T01:56:11.867Z,95789.63
2023-05-23T01:58:39.852Z,95784.50
2023-05-23T02:01:07.811Z,95785.09
2023-05-23T02:03:36.836Z,95789.41
2023-05-23T02:06:04.635Z,95787.34
2023-05-23T02:08:32.154Z,95783.03
2023-05-23T02:10:59.714Z,95787.91
2023-05-23T02:13:27.206Z,95788.78
2023-05-23T02:15:54.729Z,95787.41
2023-05-23T02:18:22.344Z,95797.19
2023-05-23T02:20:51.496Z,95792.28
2023-05-23T02:23:19.136Z,95790.22
2023-05-23T02:25:46.665Z,95791.19
2023-05-23T02:28:14.270Z,95795.34
2023-05-23T02:30:41.779Z,95794.13
2023-05-23T02:33:09.342Z,95786.31
2023-05-23T02:35:36.846Z,95786.28
2023-05-23T02:38:05.681Z,95792.25
2023-05-23T02:40:33.169Z,95792.00
2023-05-23T02:43:00.800Z,95789.38
2023-05-23T02:45:28.294Z,95794.13
2023-05-23T02:47:55.933Z,95790.78
2023-05-23T02:50:23.681Z,95796.97
2023-05-23T02:52:51.733Z,95783.19
2023-05-23T02:55:20.598Z,95780.94
2023-05-23T02:57:48.069Z,95789.38
2023-05-23T03:00:16.164Z,95792.91
2023-05-23T03:02:43.790Z,95778.88
2023-05-23T03:05:11.436Z,95778.88
2023-05-23T03:07:39.035Z,95794.09
2023-05-23T03:10:08.167Z,95796.13
2023-05-23T03:12:37.148Z,95794.88
2023-05-23T03:15:05.593Z,95794.72
2023-05-23T03:17:33.252Z,95795.75
2023-05-23T03:20:00.896Z,95788.03
2023-05-23T03:22:28.863Z,95788.41
2023-05-23T03:24:56.538Z,95780.97
2023-05-23T03:27:24.188Z,95782.94
2023-05-23T03:29:53.137Z,95783.22
2023-05-23T03:32:20.915Z,95776.34
2023-05-23T03:34:48.553Z,95784.63
2023-05-23T03:37:16.294Z,95784.75
2023-05-23T03:39:43.902Z,95795.56
2023-05-23T03:42:11.538Z,95789.63
2023-05-23T03:44:39.165Z,95789.91
2023-05-23T03:47:08.812Z,95795.00
2023-05-23T03:49:36.482Z,95791.25
2023-05-23T03:52:04.355Z,95796.63
2023-05-23T03:54:31.985Z,95801.63
2023-05-23T03:56:59.637Z,95793.34
2023-05-23T03:59:27.279Z,95805.94
2023-05-23T04:01:55.193Z,95792.69
2023-05-23T04:04:25.176Z,95796.63
2023-05-23T04:06:53.021Z,95792.94
2023-05-23T04:09:20.664Z,95802.03
2023-05-23T04:11:48.487Z,95798.53
2023-05-23T04:14:16.203Z,95799.16
2023-05-23T04:16:44.934Z,95806.59
2023-05-23T04:19:13.417Z,95809.50
2023-05-23T04:21:42.314Z,95810.34
2023-05-23T04:24:09.865Z,95814.88
2023-05-23T04:26:37.414Z,95807.84
2023-05-23T04:29:06.099Z,95811.97
2023-05-23T04:31:35.222Z,95819.00
2023-05-23T04:34:03.758Z,95822.25
2023-05-23T04:36:31.411Z,95812.69
2023-05-23T04:39:00.266Z,95818.25
2023-05-23T04:41:28.159Z,95818.81
2023-05-23T04:43:58.410Z,95824.72
2023-05-23T04:46:26.758Z,95821.47
2023-05-23T04:48:54.875Z,95822.25
2023-05-23T04:51:22.576Z,95822.97
2023-05-23T04:53:50.680Z,95827.56
2023-05-23T04:56:21.798Z,95818.53
2023-05-23T04:58:49.648Z,95823.13
2023-05-23T05:01:17.402Z,95817.91
2023-05-23T05:03:44.978Z,95820.03
2023-05-23T05:06:12.580Z,95818.22
2023-05-23T05:08:40.735Z,95821.13
2023-05-23T05:11:08.308Z,95818.56
2023-05-23T05:13:37.618Z,95831.88
2023-05-23T05:16:05.395Z,95829.84
2023-05-23T05:18:32.909Z,95834.91
2023-05-23T05:21:01.135Z,95841.94
2023-05-23T05:23:29.425Z,95853.06
2023-05-23T05:25:57.937Z,95854.22
2023-05-23T05:28:25.430Z,95854.88
2023-05-23T05:30:54.503Z,95849.78
2023-05-23T05:33:23.599Z,95848.91
2023-05-23T05:35:52.083Z,95851.63
2023-05-23T05:38:19.627Z,95850.63
2023-05-23T05:40:47.366Z,95862.94
2023-05-23T05:43:15.053Z,95856.78
2023-05-23T05:45:42.562Z,95864.47
2023-05-23T05:48:11.760Z,95869.13
2023-05-23T05:50:39.816Z,95863.91
2023-05-23T05:53:08.185Z,95855.53
2023-05-23T05:55:35.794Z,95855.19
2023-05-23T05:58:03.283Z,95863.88
2023-05-23T06:00:31.307Z,95854.84
2023-05-23T06:02:58.939Z,95874.03
2023-05-23T06:05:27.859Z,95877.72
2023-05-23T06:07:55.355Z,95878.97
2023-05-23T06:10:22.852Z,95880.78
2023-05-23T06:12:50.517Z,95884.13
2023-05-23T06:15:18.809Z,95887.56
2023-05-23T06:17:46.362Z,95891.75
2023-05-23T06:20:13.949Z,95889.78
2023-05-23T06:22:42.933Z,95871.84
2023-05-23T06:25:10.935Z,95896.91
2023-05-23T06:27:38.536Z,95893.50
2023-05-23T06:30:07.348Z,95894.63
2023-05-23T06:32:38.153Z,95893.19
2023-05-23T06:35:06.678Z,95899.84
2023-05-23T06:37:34.419Z,95897.00
2023-05-23T06:40:03.456Z,95897.03
2023-05-23T06:42:30.946Z,95892.91
2023-05-23T06:44:58.457Z,95898.34
2023-05-23T06:47:26.147Z,95901.38
2023-05-23T06:49:53.970Z,95899.66
2023-05-23T06:52:21.553Z,95895.13
2023-05-23T06:54:49.070Z,95897.09
2023-05-23T06:57:17.982Z,95900.47
2023-05-23T06:59:45.513Z,95911.16
2023-05-23T07:02:12.992Z,95918.00
2023-05-23T07:04:40.479Z,95919.94
2023-05-23T07:07:08.008Z,95926.09
2023-05-23T07:09:35.509Z,95930.09
2023-05-23T07:12:03.055Z,95923.84
2023-05-23T07:14:31.895Z,95927.22
2023-05-23T07:16:59.412Z,95927.50
2023-05-23T07:19:26.942Z,95928.09
2023-05-23T07:21:54.437Z,95925.53
2023-05-23T07:24:23.330Z,95926.94
2023-05-23T07:26:52.656Z,95929.56
2023-05-23T07:29:20.245Z,95928.25
2023-05-23T07:31:49.071Z,95936.66
2023-05-23T07:34:16.581Z,95943.25
2023-05-23T07:36:44.077Z,95937.16
2023-05-23T07:39:12.042Z,95947.28
2023-05-23T07:41:39.532Z,95941.56
2023-05-23T07:44:07.073Z,95943.25
2023-05-23T07:46:34.619Z,95942.44
2023-05-23T07:49:03.535Z,95934.09
2023-05-23T07:51:31.634Z,95943.72
2023-05-23T07:53:59.132Z,95934.56
2023-05-23T07:56:26.741Z,95938.59
2023-05-23T07:58:54.281Z,95938.66
2023-05-23T08:01:22.206Z,95930.16
2023-05-23T08:03:49.766Z,95933.94
2023-05-23T08:06:18.597Z,95947.56
2023-05-23T08:08:46.120Z,95942.84
2023-05-23T08:11:14.870Z,95954.81
2023-05-23T08:13:42.390Z,95949.19
2023-05-23T08:16:09.967Z,95946.94
2023-05-23T08:18:37.702Z,95947.28
2023-05-23T08:21:05.275Z,95942.91
2023-05-23T08:23:34.120Z,95946.78
2023-05-23T08:26:01.596Z,95952.13
2023-05-23T08:28:29.089Z,95957.25
2023-05-23T08:30:58.290Z,95947.88
2023-05-23T08:33:25.812Z,95965.13
2023-05-23T08:35:53.386Z,95958.06
2023-05-23T08:38:22.062Z,95968.75
2023-05-23T08:40:52.791Z,95965.81
2023-05-23T08:43:20.705Z,95959.50
2023-05-23T08:45:50.821Z,95959.94
2023-05-23T08:48:20.767Z,95970.88
2023-05-23T08:50:50.460Z,95962.47
2023-05-23T08:53:20.931Z,95969.59
2023-05-23T08:55:52.130Z,95978.66
2023-05-23T08:58:20.916Z,95974.94
2023-05-23T09:00:48.569Z,95977.59
2023-05-23T09:03:16.804Z,96000.00
2023-05-23T09:05:44.395Z,95987.31
2023-05-23T09:08:13.141Z,95987.84
2023-05-23T09:10:41.067Z,95992.06
2023-05-23T09:13:10.430Z,96001.84
2023-05-23T09:15:38.660Z,95998.53
2023-05-23T09:18:06.180Z,96007.13
2023-05-23T09:20:34.550Z,95997.84
2023-05-23T09:23:06.750Z,96015.00
2023-05-23T09:25:38.766Z,96014.59
2023-05-23T09:28:06.247Z,96013.03
2023-05-23T09:30:36.535Z,96013.53
2023-05-23T09:33:05.538Z,96015.63
2023-05-23T09:35:33.760Z,96009.28
2023-05-23T09:38:01.577Z,96013.88
2023-05-23T09:40:33.585Z,96010.16
2023-05-23T09:43:04.665Z,95998.63
2023-05-23T09:45:34.205Z,96005.09
2023-05-23T09:48:03.167Z,96005.66
2023-05-23T09:50:34.137Z,96013.06
2023-05-23T09:53:01.901Z,96014.03
2023-05-23T09:55:29.543Z,96003.41
2023-05-23T09:58:00.674Z,96017.19
2023-05-23T10:00:28.837Z,96003.16
2023-05-23T10:03:02.973Z,96008.44
2023-05-23T10:05:39.044Z,96012.03
2023-05-23T10:08:13.433Z,96012.38
2023-05-23T10:11:43.356Z,96012.72
2023-05-23T10:14:13.180Z,96012.16
2023-05-23T10:16:49.078Z,96004.19
2023-05-23T10:19:24.799Z,96009.41
2023-05-23T10:22:00.507Z,96007.41
2023-05-23T10:24:28.744Z,96007.09
2023-05-23T10:26:56.782Z,96013.06
2023-05-23T10:29:24.548Z,96012.84
2023-05-23T10:31:54.326Z,96014.59
2023-05-23T10:34:30.756Z,96006.06
2023-05-23T10:37:04.179Z,96010.88
2023-05-23T10:39:44.244Z,96016.41
2023-05-23T10:42:16.616Z,96010.91
2023-05-23T10:44:44.193Z,96010.91
2023-05-23T10:47:12.993Z,96008.97
2023-05-23T10:49:42.568Z,96009.81
2023-05-23T10:52:13.084Z,95999.66
2023-05-23T10:54:45.042Z,96013.59
2023-05-23T10:57:18.326Z,96004.31
2023-05-23T10:59:46.852Z,96016.59
2023-05-23T11:02:16.298Z,96009.06
2023-05-23T11:04:44.510Z,96004.84
2023-05-23T11:07:31.990Z,96002.63
2023-05-23T11:10:09.747Z,96004.03
2023-05-23T11:12:42.205Z,95997.09
2023-05-23T11:15:22.506Z,95995.81
2023-05-23T11:17:54.654Z,95996.41
2023-05-23T11:20:27.570Z,95998.66
2023-05-23T11:23:02.719Z,95995.97
2023-05-23T11:25:42.834Z,95988.81
2023-05-23T11:28:11.022Z,95985.31
2023-05-23T11:30:39.590Z,95987.44
2023-05-23T11:33:10.747Z,95991.88
2023-05-23T11:35:38.618Z,95991.47
2023-05-23T11:38:08.043Z,95992.53
2023-05-23T11:40:36.946Z,95990.94
2023-05-23T11:43:05.943Z,95989.03
2023-05-23T11:45:34.618Z,95981.78
2023-05-23T11:48:06.938Z,95981.41
2023-05-23T11:50:35.003Z,95983.84
2023-05-23T11:53:02.855Z,95983.19
2023-05-23T11:55:32.309Z,95980.03
2023-05-23T11:58:00.006Z,95981.06
2023-05-23T12:00:27.514Z,95977.44
2023-05-23T12:02:55.074Z,95965.97
2023-05-23T12:05:22.647Z,95982.28
2023-05-23T12:07:51.031Z,95972.94
2023-05-23T12:10:20.540Z,95969.91
2023-05-23T12:12:50.054Z,95981.94
2023-05-23T12:15:17.583Z,95977.16
2023-05-23T12:17:46.920Z,95978.94
2023-05-23T12:20:14.873Z,95970.03
2023-05-23T12:22:42.805Z,95985.00
2023-05-23T12:25:11.259Z,95982.78
2023-05-23T12:27:41.778Z,95982.97
2023-05-23T12:30:12.700Z,95977.94
2023-05-23T12:32:41.720Z,96000.41
2023-05-23T12:35:12.152Z,95985.53
2023-05-23T12:37:40.964Z,95993.34
2023-05-23T12:40:14.269Z,96001.84
2023-05-23T12:42:47.846Z,95991.16
2023-05-23T12:45:16.939Z,95995.13
2023-05-23T12:47:44.487Z,95994.16
2023-05-23T12:50:13.367Z,95999.25
2023-05-23T12:52:41.292Z,95996.22
2023-05-23T12:55:10.021Z,95998.78
2023-05-23T12:57:37.888Z,95997.66
2023-05-23T13:00:06.948Z,96006.16
2023-05-23T13:02:35.852Z,96008.50
2023-05-23T13:05:03.446Z,96000.34
2023-05-23T13:07:30.970Z,96007.72
2023-05-23T13:09:58.699Z,96002.19
2023-05-23T13:12:26.230Z,96024.03
2023-05-23T13:14:53.774Z,96012.53
2023-05-23T13:17:21.734Z,96025.81
2023-05-23T13:19:50.576Z,96022.63
2023-05-23T13:22:18.086Z,96038.28
2023-05-23T13:24:46.166Z,96036.69
2023-05-23T13:27:13.700Z,96040.91
2023-05-23T13:29:42.025Z,96029.03
2023-05-23T13:32:09.580Z,96039.78
2023-05-23T13:34:37.542Z,96034.22
2023-05-23T13:37:06.763Z,96037.69
2023-05-23T13:39:34.314Z,96043.41
2023-05-23T13:42:01.812Z,96038.53
2023-05-23T13:44:29.362Z,96041.53
2023-05-23T13:47:12.893Z,96039.31
2023-05-23T13:49:41.407Z,96047.03
2023-05-23T13:52:10.328Z,96047.06
2023-05-23T13:54:38.314Z,96048.13
2023-05-23T13:57:06.752Z,96038.25
2023-05-23T13:59:34.250Z,96043.34
2023-05-23T14:02:01.789Z,96049.16
2023-05-23T14:04:29.469Z,96048.84
2023-05-23T14:06:56.984Z,96049.69
2023-05-23T14:09:25.841Z,96051.38
2023-05-23T14:11:53.695Z,96054.47
2023-05-23T14:14:21.232Z,96052.00
2023-05-23T14:16:51.396Z,96057.84
2023-05-23T14:19:19.092Z,96052.00
2023-05-23T14:21:46.792Z,96048.53
2023-05-23T14:24:14.319Z,96046.31
2023-05-23T14:26:43.198Z,96039.59
2023-05-23T14:29:10.699Z,96049.63
2023-05-23T14:31:38.198Z,96049.75
2023-05-23T14:34:06.220Z,96049.59
2023-05-23T14:36:33.933Z,96051.38
2023-05-23T14:39:04.048Z,96060.81
2023-05-23T14:41:31.792Z,96067.03
2023-05-23T14:44:00.662Z,96059.25
2023-05-23T14:46:28.243Z,96067.31
2023-05-23T14:48:55.793Z,96068.84
2023-05-23T14:51:35.074Z,96061.91
2023-05-23T14:54:11.230Z,96070.53
2023-05-23T14:56:41.066Z,96069.84
2023-05-23T14:59:09.942Z,96064.09
2023-05-23T15:01:39.828Z,96062.63
2023-05-23T15:04:09.592Z,96063.72
2023-05-23T15:06:37.873Z,96054.97
2023-05-23T15:09:05.661Z,96064.97
2023-05-23T15:11:34.779Z,96058.78
2023-05-23T15:14:02.301Z,96055.66
2023-05-23T15:16:32.954Z,96072.78
2023-05-23T15:19:01.093Z,96062.00
2023-05-23T15:21:29.011Z,96061.81
2023-05-23T15:23:57.708Z,96057.38
2023-05-23T15:26:25.795Z,96058.44
2023-05-23T15:28:53.343Z,96050.72
2023-05-23T15:31:21.071Z,96052.22
2023-05-23T15:33:49.940Z,96060.25
2023-05-23T15:36:17.481Z,96064.75
2023-05-23T15:38:45.032Z,96058.66
2023-05-23T15:41:12.761Z,96059.97
2023-05-23T15:43:40.273Z,96063.16
2023-05-23T15:46:07.800Z,96062.22
2023-05-23T15:48:35.373Z,96060.00
2023-05-23T15:51:04.336Z,96070.69
2023-05-23T15:53:34.514Z,96079.75
2023-05-23T15:56:04.905Z,96071.66
2023-05-23T15:58:32.561Z,96079.88
2023-05-23T16:01:00.050Z,96080.91
2023-05-23T16:03:27.603Z,96081.03
2023-05-23T16:05:55.315Z,96077.34
2023-05-23T16:08:24.171Z,96084.63
2023-05-23T16:10:51.666Z,96087.81
2023-05-23T16:13:19.178Z,96079.44
2023-05-23T16:15:46.786Z,96077.75
2023-05-23T16:18:15.662Z,96085.13
2023-05-23T16:20:43.205Z,96080.56
2023-05-23T16:23:10.720Z,96078.16
2023-05-23T16:25:39.637Z,96089.81
2023-05-23T16:28:07.652Z,96087.03
2023-05-23T16:30:35.307Z,96089.47
2023-05-23T16:33:02.939Z,96084.22
2023-05-23T16:35:30.570Z,96089.19
2023-05-23T16:37:58.062Z,96094.91
2023-05-23T16:40:25.591Z,96082.41
2023-05-23T16:42:54.424Z,96083.53
2023-05-23T16:45:22.055Z,96102.81
2023-05-23T16:47:49.617Z,96094.16
2023-05-23T16:50:17.350Z,96103.00
2023-05-23T16:52:45.292Z,96097.47
2023-05-23T16:55:12.788Z,96095.31
2023-05-23T16:57:40.322Z,96097.88
2023-05-23T17:00:10.778Z,96102.03
2023-05-23T17:02:38.361Z,96101.09
2023-05-23T17:05:06.542Z,96099.31
2023-05-23T17:07:34.070Z,96103.47
2023-05-23T17:10:01.648Z,96097.16
2023-05-23T17:12:29.138Z,96102.31
2023-05-23T17:14:56.645Z,96104.03
2023-05-23T17:17:25.489Z,96107.38
2023-05-23T17:19:53.054Z,96108.69
2023-05-23T17:22:20.547Z,96109.31
2023-05-23T17:24:48.075Z,96107.50
2023-05-23T17:27:15.602Z,96113.84
2023-05-23T17:29:43.120Z,96115.94
2023-05-23T17:32:10.631Z,96104.53
2023-05-23T17:34:39.467Z,96121.00
2023-05-23T17:37:06.989Z,96126.47
2023-05-23T17:39:34.509Z,96123.44
2023-05-23T17:42:02.077Z,96128.50
2023-05-23T17:44:29.587Z,96134.75
2023-05-23T17:46:57.195Z,96134.53
2023-05-23T17:49:24.757Z,96140.53
2023-05-23T17:51:53.644Z,96136.78
2023-05-23T17:54:21.171Z,96136.78
2023-05-23T17:56:48.720Z,96141.94
2023-05-23T17:59:16.476Z,96135.09
2023-05-23T18:01:44.037Z,96135.94
2023-05-23T18:04:11.643Z,96130.59
2023-05-23T18:06:39.182Z,96138.44
2023-05-23T18:09:09.726Z,96144.19
2023-05-23T18:11:38.067Z,96134.72
2023-05-23T18:14:06.019Z,96135.28
2023-05-23T18:16:34.158Z,96135.88
2023-05-23T18:19:01.753Z,96139.44
2023-05-23T18:21:29.692Z,96150.69
2023-05-23T18:23:57.513Z,96156.06
2023-05-23T18:26:27.232Z,96149.00
2023-05-23T18:28:54.742Z,96152.75
2023-05-23T18:31:22.268Z,96149.88
2023-05-23T18:33:49.843Z,96154.41
2023-05-23T18:36:17.367Z,96163.47
2023-05-23T18:38:45.597Z,96156.31
2023-05-23T18:41:14.848Z,96148.91
2023-05-23T18:43:44.024Z,96152.78
2023-05-23T18:46:11.610Z,96172.69
2023-05-23T18:48:39.157Z,96167.78
2023-05-23T18:51:06.893Z,96166.56
2023-05-23T18:53:34.388Z,96174.47
2023-05-23T18:56:01.930Z,96186.66
2023-05-23T18:58:29.430Z,96186.56
2023-05-23T19:01:03.441Z,96185.28
2023-05-23T19:03:32.000Z,96195.38
2023-05-23T19:06:02.376Z,96194.06
2023-05-23T19:08:30.647Z,96197.56
2023-05-23T19:10:58.316Z,96188.09
2023-05-23T19:13:26.261Z,96205.72
2023-05-23T19:15:53.869Z,96201.81
2023-05-23T19:18:23.147Z,96203.22
2023-05-23T19:20:51.639Z,96207.91
2023-05-23T19:23:19.181Z,96218.63
2023-05-23T19:25:46.897Z,96215.53
2023-05-23T19:28:15.237Z,96220.19
2023-05-23T19:30:43.056Z,96224.97
2023-05-23T19:33:10.996Z,96225.66
2023-05-23T19:35:39.859Z,96239.75
2023-05-23T19:38:07.512Z,96241.59
2023-05-23T19:40:35.045Z,96240.88
2023-05-23T19:43:02.585Z,96248.41
2023-05-23T19:45:30.148Z,96250.31
2023-05-23T19:47:58.588Z,96256.84
2023-05-23T19:50:26.256Z,96255.66
2023-05-23T19:52:55.121Z,96262.97
2023-05-23T19:55:22.792Z,96263.78
2023-05-23T19:57:50.602Z,96271.81
2023-05-23T20:00:18.607Z,96274.59
2023-05-23T20:02:47.322Z,96282.28
2023-05-23T20:05:14.891Z,96278.41
2023-05-23T20:07:42.816Z,96283.34
2023-05-23T20:10:12.312Z,96286.78
2023-05-23T20:12:39.825Z,96297.47
2023-05-23T20:15:08.306Z,96291.63
2023-05-23T20:17:36.029Z,96299.97
2023-05-23T20:20:04.283Z,96301.56
2023-05-23T20:22:31.806Z,96308.56
2023-05-23T20:24:59.304Z,96319.31
2023-05-23T20:27:28.313Z,96316.69
2023-05-23T20:29:55.822Z,96321.84
2023-05-23T20:32:23.415Z,96319.97
2023-05-23T20:34:51.025Z,96329.50
2023-05-23T20:37:18.875Z,96330.03
2023-05-23T20:39:48.383Z,96328.44
2023-05-23T20:42:16.018Z,96332.91
2023-05-23T20:44:44.968Z,96332.47
2023-05-23T20:47:13.442Z,96339.72
2023-05-23T20:49:42.261Z,96337.50
2023-05-23T20:52:10.247Z,96342.84
2023-05-23T20:54:37.788Z,96341.94
2023-05-23T20:57:05.970Z,96341.00
2023-05-23T20:59:33.469Z,96339.28
2023-05-23T21:02:02.345Z,96353.63
2023-05-23T21:04:29.842Z,96352.31
2023-05-23T21:06:57.435Z,96350.59
2023-05-23T21:09:24.960Z,96359.69
2023-05-23T21:11:52.474Z,96359.06
2023-05-23T21:14:20.000Z,96355.00
2023-05-23T21:16:47.588Z,96358.50
2023-05-23T21:19:16.542Z,96352.78
2023-05-23T21:21:44.067Z,96356.63
2023-05-23T21:24:11.597Z,96355.84
2023-05-23T21:26:39.066Z,96361.81
2023-05-23T21:29:06.693Z,96364.31
2023-05-23T21:31:41.454Z,96361.28
2023-05-23T21:34:22.213Z,96360.00
2023-05-23T21:36:52.253Z,96368.81
2023-05-23T21:39:19.873Z,96366.53
2023-05-23T21:41:47.424Z,96366.13
2023-05-23T21:44:15.616Z,96358.56
2023-05-23T21:46:43.145Z,96360.09
2023-05-23T21:49:10.733Z,96365.41
2023-05-23T21:51:38.488Z,96350.78
2023-05-23T21:54:07.392Z,96360.69
2023-05-23T21:56:34.900Z,96363.69
2023-05-23T21:59:02.413Z,96370.78
2023-05-23T22:01:29.983Z,96364.94
2023-05-23T22:03:57.648Z,96360.19
2023-05-23T22:06:25.288Z,96369.91
2023-05-23T22:08:53.325Z,96365.19
2023-05-23T22:11:22.172Z,96363.94
2023-05-23T22:13:49.704Z,96350.31
2023-05-23T22:16:17.233Z,96350.38
2023-05-23T22:21:16.484Z,96344.50
2023-05-23T22:23:44.002Z,96349.00
2023-05-23T22:26:12.338Z,96352.88
2023-05-23T22:28:41.177Z,96354.84
2023-05-23T22:31:10.389Z,96354.34
2023-05-23T22:33:39.644Z,96351.56
2023-05-23T22:36:07.749Z,96359.72
2023-05-23T22:38:35.850Z,96358.47
2023-05-23T22:41:03.734Z,96361.59
2023-05-23T22:43:31.723Z,96361.34
2023-05-23T22:46:00.658Z,96361.16
2023-05-23T22:48:28.293Z,96351.38
2023-05-23T22:50:57.165Z,96351.00
2023-05-23T22:53:24.775Z,96359.78
2023-05-23T22:55:52.282Z,96359.06
2023-05-23T22:58:19.843Z,96352.56
2023-05-23T23:00:47.422Z,96347.00
2023-05-23T23:03:16.543Z,96356.94
2023-05-23T23:05:44.319Z,96353.59
2023-05-23T23:08:12.187Z,96351.25
2023-05-23T23:10:40.249Z,96352.16
2023-05-23T23:13:08.110Z,96348.38
2023-05-23T23:15:36.945Z,96349.78
2023-05-23T23:18:05.731Z,96352.16
2023-05-23T23:20:34.880Z,96357.84
2023-05-23T23:23:02.421Z,96355.97
2023-05-23T23:25:30.348Z,96359.25
2023-05-23T23:27:57.869Z,96359.44
2023-05-23T23:30:25.398Z,96356.13
2023-05-23T23:32:52.903Z,96354.13
2023-05-23T23:35:20.551Z,96351.91
2023-05-23T23:37:49.384Z,96350.16
2023-05-23T23:40:17.102Z,96350.22
2023-05-23T23:42:44.599Z,96356.56
2023-05-23T23:45:12.433Z,96363.66
2023-05-23T23:47:39.988Z,96368.31
2023-05-23T23:50:09.074Z,96370.44
2023-05-23T23:52:38.875Z,96371.06
2023-05-23T23:55:08.399Z,96363.03
2023-05-23T23:57:35.952Z,96369.91
